createdAt,value
2019-05-21T00:01:19.373Z,7.33
2019-05-21T00:06:06.279Z,6.57
2019-05-21T00:10:51.220Z,8.17
2019-05-21T00:15:35.991Z,8.43
2019-05-21T00:20:21.010Z,9.10
2019-05-21T00:25:05.944Z,8.97
2019-05-21T00:30:26.355Z,11.10
2019-05-21T00:35:49.855Z,10.50
2019-05-21T00:41:10.512Z,13.30
2019-05-21T00:45:55.983Z,9.70
2019-05-21T00:50:40.807Z,11.97
2019-05-21T00:55:25.697Z,10.17
2019-05-21T01:00:10.866Z,10.77
2019-05-21T01:05:00.704Z,11.33
2019-05-21T01:09:44.033Z,8.97
2019-05-21T01:14:28.772Z,10.53
2019-05-21T01:19:13.441Z,10.60
2019-05-21T01:23:58.363Z,9.83
2019-05-21T01:28:46.022Z,11.90
2019-05-21T01:33:30.679Z,10.27
2019-05-21T01:38:15.267Z,10.07
2019-05-21T01:43:03.065Z,9.73
2019-05-21T01:47:46.274Z,8.77
2019-05-21T01:52:30.971Z,8.67
2019-05-21T01:57:15.848Z,10.70
2019-05-21T02:02:00.974Z,9.47
2019-05-21T02:06:49.170Z,8.27
2019-05-21T02:11:35.527Z,9.10
2019-05-21T02:16:20.288Z,7.97
2019-05-21T02:21:04.834Z,10.77
2019-05-21T02:25:49.735Z,8.07
2019-05-21T02:30:34.561Z,10.17
2019-05-21T02:35:19.209Z,7.80
2019-05-21T02:40:05.502Z,10.10
2019-05-21T02:44:53.899Z,8.37
2019-05-21T02:49:37.494Z,8.43
2019-05-21T02:54:39.209Z,8.73
2019-05-21T02:59:08.869Z,9.13
2019-05-21T03:03:53.726Z,11.03
2019-05-21T03:08:41.768Z,9.70
2019-05-21T03:13:27.882Z,12.27
2019-05-21T03:18:12.591Z,11.00
2019-05-21T03:22:57.396Z,8.97
2019-05-21T03:27:43.970Z,9.47
2019-05-21T03:32:37.686Z,8.80
2019-05-21T03:37:25.496Z,8.33
2019-05-21T03:42:12.062Z,11.27
2019-05-21T03:46:57.062Z,10.60
2019-05-21T03:51:41.705Z,10.33
2019-05-21T03:56:26.592Z,10.40
2019-05-21T04:01:11.330Z,8.43
2019-05-21T04:05:56.615Z,10.93
2019-05-21T04:10:43.050Z,11.13
2019-05-21T04:15:29.280Z,12.23
2019-05-21T04:20:13.899Z,9.03
2019-05-21T04:24:58.890Z,9.50
2019-05-21T04:29:46.294Z,9.17
2019-05-21T04:34:30.900Z,9.50
2019-05-21T04:39:16.817Z,9.33
2019-05-21T04:44:01.426Z,8.87
2019-05-21T04:48:46.176Z,9.43
2019-05-21T04:53:30.893Z,9.13
2019-05-21T04:58:18.477Z,10.17
2019-05-21T05:03:06.465Z,10.03
2019-05-21T05:07:53.447Z,10.03
2019-05-21T05:12:38.023Z,13.47
2019-05-21T05:17:24.345Z,12.47
2019-05-21T05:22:08.790Z,11.80
2019-05-21T05:26:58.067Z,12.30
2019-05-21T05:31:42.717Z,11.90
2019-05-21T05:36:32.104Z,12.73
2019-05-21T05:41:16.778Z,12.33
2019-05-21T05:46:04.516Z,11.33
2019-05-21T05:50:51.002Z,11.83
2019-05-21T05:55:35.669Z,11.07
2019-05-21T06:00:21.195Z,11.03
2019-05-21T06:05:06.328Z,11.20
2019-05-21T06:09:51.713Z,10.67
2019-05-21T06:14:36.375Z,11.70
2019-05-21T06:19:21.875Z,10.77
2019-05-21T06:24:06.786Z,10.60
2019-05-21T06:28:55.847Z,10.53
2019-05-21T06:33:40.847Z,10.00
2019-05-21T06:38:26.139Z,9.27
2019-05-21T06:43:12.097Z,9.70
2019-05-21T06:47:56.844Z,10.80
2019-05-21T06:52:44.331Z,8.10
2019-05-21T06:57:29.311Z,7.53
2019-05-21T07:02:14.117Z,7.63
2019-05-21T07:06:58.999Z,6.53
2019-05-21T07:11:46.620Z,6.70
2019-05-21T07:16:31.676Z,8.60
2019-05-21T07:21:16.296Z,7.10
2019-05-21T07:26:00.980Z,5.53
2019-05-21T07:30:45.827Z,4.97
2019-05-21T07:35:30.678Z,4.73
2019-05-21T07:40:15.663Z,4.53
2019-05-21T07:45:00.386Z,4.43
2019-05-21T07:49:45.115Z,4.13
2019-05-21T07:54:29.827Z,4.30
2019-05-21T07:59:14.561Z,4.40
2019-05-21T08:03:59.382Z,2.87
2019-05-21T08:08:44.351Z,3.23
2019-05-21T08:13:29.171Z,2.30
2019-05-21T08:18:13.837Z,2.07
2019-05-21T08:22:58.623Z,2.00
2019-05-21T08:27:45.213Z,1.90
2019-05-21T08:32:29.948Z,1.90
2019-05-21T08:37:14.638Z,2.67
2019-05-21T08:41:59.482Z,1.70
2019-05-21T08:46:44.286Z,1.70
2019-05-21T08:51:29.010Z,2.40
2019-05-21T08:56:13.837Z,2.70
2019-05-21T09:00:58.701Z,2.07
2019-05-21T09:05:45.341Z,2.00
2019-05-21T09:10:30.222Z,1.50
2019-05-21T09:15:15.460Z,1.60
2019-05-21T09:20:00.321Z,1.83
2019-05-21T09:24:45.290Z,1.70
2019-05-21T09:29:30.018Z,1.40
2019-05-21T09:34:15.037Z,1.60
2019-05-21T09:38:59.982Z,1.30
2019-05-21T09:43:44.605Z,2.20
2019-05-21T09:48:29.727Z,1.50
2019-05-21T09:53:14.562Z,1.57
2019-05-21T09:58:09.812Z,1.47
2019-05-21T10:02:54.425Z,1.50
2019-05-21T10:07:40.691Z,1.47
2019-05-21T10:12:25.729Z,1.30
2019-05-21T10:17:11.478Z,1.33
2019-05-21T10:21:57.067Z,1.40
2019-05-21T10:26:42.145Z,1.30
2019-05-21T10:31:26.716Z,1.33
2019-05-21T10:36:15.515Z,1.62
2019-05-21T10:41:01.959Z,1.87
2019-05-21T10:45:46.950Z,1.53
2019-05-21T10:50:31.843Z,1.67
2019-05-21T10:55:17.643Z,1.70
2019-05-21T11:00:06.062Z,1.40
2019-05-21T11:05:00.905Z,1.42
2019-05-21T11:09:45.802Z,1.00
2019-05-21T11:14:30.955Z,1.40
2019-05-21T11:19:15.871Z,1.00
2019-05-21T11:24:00.598Z,1.37
2019-05-21T11:28:45.319Z,1.00
2019-05-21T11:33:30.046Z,1.07
2019-05-21T11:38:17.172Z,0.98
2019-05-21T11:43:01.720Z,1.10
2019-05-21T11:47:46.461Z,1.90
2019-05-21T11:52:31.239Z,0.93
2019-05-21T11:57:15.817Z,0.80
2019-05-21T12:02:00.576Z,1.25
2019-05-21T12:06:45.787Z,1.00
2019-05-21T12:11:30.424Z,0.93
2019-05-21T12:16:15.040Z,1.20
2019-05-21T12:21:00.582Z,0.80
2019-05-21T12:25:45.395Z,1.47
2019-05-21T12:30:32.720Z,0.80
2019-05-21T12:35:20.650Z,0.93
2019-05-21T12:40:06.229Z,1.00
2019-05-21T12:44:50.954Z,0.88
2019-05-21T12:49:35.554Z,1.37
2019-05-21T12:54:25.866Z,0.85
2019-05-21T12:59:10.503Z,1.17
2019-05-21T13:03:56.435Z,0.90
2019-05-21T13:08:42.656Z,1.77
2019-05-21T13:13:27.640Z,0.90
2019-05-21T13:18:13.649Z,1.00
2019-05-21T13:22:58.685Z,1.12
2019-05-21T13:27:43.366Z,1.60
2019-05-21T13:32:28.336Z,1.00
2019-05-21T13:37:13.428Z,2.03
2019-05-21T13:41:58.036Z,1.27
2019-05-21T13:46:48.168Z,2.20
2019-05-21T13:51:30.246Z,1.12
2019-05-21T13:56:15.102Z,1.30
2019-05-21T14:01:00.414Z,2.07
2019-05-21T14:05:45.354Z,1.30
2019-05-21T14:10:34.678Z,2.63
2019-05-21T14:15:19.468Z,3.27
2019-05-21T14:20:10.761Z,4.00
2019-05-21T14:24:58.530Z,1.13
2019-05-21T14:29:46.199Z,2.57
2019-05-21T14:34:35.886Z,1.73
2019-05-21T14:39:22.381Z,1.17
2019-05-21T14:44:11.586Z,1.57
2019-05-21T14:48:56.739Z,2.20
2019-05-21T14:53:43.462Z,1.43
2019-05-21T14:58:32.476Z,1.20
2019-05-21T15:03:25.156Z,2.40
2019-05-21T15:08:09.080Z,1.67
2019-05-21T15:13:11.359Z,1.93
2019-05-21T15:17:59.182Z,1.47
2019-05-21T15:22:44.633Z,1.40
2019-05-21T15:27:32.272Z,2.67
2019-05-21T15:32:17.053Z,1.43
2019-05-21T15:37:04.928Z,3.77
2019-05-21T15:41:49.823Z,1.40
2019-05-21T15:46:47.876Z,1.60
2019-05-21T15:51:23.811Z,2.17
2019-05-21T15:56:18.360Z,1.67
2019-05-21T16:01:05.964Z,1.73
2019-05-21T16:06:12.273Z,1.70
2019-05-21T16:11:27.275Z,2.03
2019-05-21T16:15:58.332Z,1.47
2019-05-21T16:20:45.722Z,1.60
2019-05-21T16:26:16.451Z,1.70
2019-05-21T16:30:30.144Z,1.80
2019-05-21T16:35:15.470Z,1.70
2019-05-21T16:40:01.529Z,3.30
2019-05-21T16:44:46.359Z,1.30
2019-05-21T16:49:31.265Z,3.00
2019-05-21T16:54:15.975Z,8.83
2019-05-21T16:59:01.162Z,2.83
2019-05-21T17:03:59.053Z,2.17
2019-05-21T17:08:34.160Z,1.80
2019-05-21T17:13:19.156Z,2.00
2019-05-21T17:18:04.065Z,2.73
2019-05-21T17:22:52.151Z,2.02
2019-05-21T17:27:42.102Z,1.80
2019-05-21T17:32:28.484Z,2.10
2019-05-21T17:37:18.353Z,1.80
2019-05-21T17:42:30.344Z,2.73
2019-05-21T17:52:33.523Z,1.90
2019-05-21T17:57:38.160Z,2.20
2019-05-21T18:02:28.390Z,2.30
2019-05-21T18:07:14.208Z,2.00
2019-05-21T18:11:59.356Z,1.90
2019-05-21T18:16:44.545Z,3.67
2019-05-21T18:21:35.694Z,3.43
2019-05-21T18:26:34.160Z,2.03
2019-05-21T18:31:36.141Z,2.00
2019-05-21T18:36:17.060Z,1.93
2019-05-21T18:41:07.013Z,2.57
2019-05-21T18:45:54.939Z,2.53
2019-05-21T18:50:40.172Z,3.20
2019-05-21T18:55:25.415Z,3.17
2019-05-21T19:00:11.260Z,3.50
2019-05-21T19:05:04.985Z,3.40
2019-05-21T19:09:50.223Z,4.17
2019-05-21T19:14:35.060Z,4.17
2019-05-21T19:19:20.180Z,4.70
2019-05-21T19:24:05.010Z,5.27
2019-05-21T19:29:25.679Z,6.63
2019-05-21T19:34:14.344Z,7.37
2019-05-21T19:38:58.964Z,7.23
2019-05-21T19:44:05.451Z,9.27
2019-05-21T19:48:53.577Z,12.57
2019-05-21T19:53:52.236Z,14.43
2019-05-21T19:58:37.109Z,15.63
2019-05-21T20:03:22.436Z,18.97
2019-05-21T20:08:11.017Z,18.33
2019-05-21T20:13:31.794Z,18.57
2019-05-21T20:19:18.622Z,16.27
2019-05-21T20:23:08.289Z,15.37
2019-05-21T20:28:01.366Z,18.87
2019-05-21T20:32:58.663Z,15.50
2019-05-21T20:37:46.994Z,16.03
2019-05-21T20:42:59.372Z,16.73
2019-05-21T20:47:44.635Z,16.93
2019-05-21T20:52:23.133Z,18.00
2019-05-21T20:57:14.101Z,16.83
2019-05-21T21:02:00.444Z,18.57
2019-05-21T21:06:45.697Z,19.20
2019-05-21T21:11:31.619Z,20.20
2019-05-21T21:16:16.845Z,20.47
2019-05-21T21:21:02.142Z,19.83
2019-05-21T21:25:48.016Z,21.90
2019-05-21T21:30:35.584Z,20.87
2019-05-21T21:35:21.438Z,22.50
2019-05-21T21:40:07.641Z,21.70
2019-05-21T21:44:56.763Z,22.67
2019-05-21T21:49:43.161Z,25.70
2019-05-21T21:54:31.295Z,26.87
2019-05-21T21:59:16.261Z,24.13
2019-05-21T22:04:06.340Z,26.80
2019-05-21T22:08:54.250Z,26.37
2019-05-21T22:13:39.749Z,27.50
2019-05-21T22:18:26.406Z,25.93
2019-05-21T22:23:12.970Z,27.67
2019-05-21T22:27:57.840Z,27.40
2019-05-21T22:32:44.940Z,29.03
2019-05-21T22:37:30.377Z,28.37
2019-05-21T22:42:17.326Z,31.03
2019-05-21T22:47:03.196Z,29.13
2019-05-21T22:51:48.417Z,26.90
2019-05-21T22:56:33.604Z,25.07
2019-05-21T23:01:22.445Z,26.77
2019-05-21T23:06:09.116Z,26.27
2019-05-21T23:10:54.352Z,24.70
2019-05-21T23:15:49.635Z,26.97
2019-05-21T23:20:36.093Z,27.37
2019-05-21T23:25:22.470Z,27.03
2019-05-21T23:30:12.941Z,27.17
2019-05-21T23:34:59.839Z,29.07
2019-05-21T23:39:46.139Z,28.47
2019-05-21T23:44:31.554Z,27.80
2019-05-21T23:49:16.813Z,27.77
2019-05-21T23:54:02.129Z,27.50
2019-05-21T23:58:48.135Z,29.37
